Time;durP1;ratioP1;P1;durP2;ratioP2;P2;SDS_P1;SDS_P2;PMS_P1;PMS_P2;Temp;Humidity;BMP_temperature;BMP_pressure;BME280_temperature;BME280_humidity;BME280_pressure;Samples;Min_cycle;Max_cycle;Signal;HPM_P1;HPM_P2
2022/01/08 00:00:17;;;;;;;48.67;33.03;;;;;;;-1.01;100.00;100864.69;5053805;28;20104;-75
2022/01/08 00:02:43;;;;;;;52.53;33.90;;;;;;;-1.06;100.00;100878.31;5052234;28;20021;-75
2022/01/08 00:05:10;;;;;;;52.83;34.33;;;;;;;-1.13;100.00;100865.81;5053584;28;20036;-75
2022/01/08 00:07:36;;;;;;;54.58;34.53;;;;;;;-1.13;100.00;100873.59;5053740;28;20025;-75
2022/01/08 00:10:03;;;;;;;51.65;35.08;;;;;;;-1.13;100.00;100872.72;5053729;28;20032;-75
2022/01/08 00:12:28;;;;;;;54.28;35.33;;;;;;;-1.13;100.00;100876.19;5049731;28;20107;-74
2022/01/08 00:14:54;;;;;;;54.15;36.35;;;;;;;-1.10;100.00;100880.66;5053550;28;20117;-75
2022/01/08 00:17:22;;;;;;;53.80;36.88;;;;;;;-1.09;100.00;100883.34;5053174;28;20035;-75
2022/01/08 00:19:48;;;;;;;57.80;38.17;;;;;;;-1.09;100.00;100880.75;5053646;28;20155;-75
2022/01/08 00:22:13;;;;;;;54.00;37.22;;;;;;;-1.10;100.00;100891.94;5053391;28;20121;-75
2022/01/08 00:24:38;;;;;;;56.42;37.85;;;;;;;-1.02;100.00;100889.75;5053101;28;20045;-75
2022/01/08 00:27:05;;;;;;;56.33;37.60;;;;;;;-1.03;100.00;100887.03;5053286;28;20045;-74
2022/01/08 00:29:30;;;;;;;55.90;36.25;;;;;;;-1.05;100.00;100879.19;5053370;28;20025;-73
2022/01/08 00:31:55;;;;;;;56.15;36.67;;;;;;;-1.02;100.00;100883.66;5053446;28;20036;-74
2022/01/08 00:34:21;;;;;;;60.67;38.05;;;;;;;-1.01;100.00;100890.63;5053201;28;20035;-74
2022/01/08 00:36:46;;;;;;;56.50;38.35;;;;;;;-0.98;100.00;100888.19;5053275;28;20051;-73
2022/01/08 00:39:11;;;;;;;54.15;38.08;;;;;;;-0.98;100.00;100889.06;5052975;28;20109;-73
2022/01/08 00:41:37;;;;;;;54.70;38.38;;;;;;;-0.97;100.00;100895.19;5052878;28;20029;-74
2022/01/08 00:44:02;;;;;;;54.97;37.75;;;;;;;-0.99;100.00;100899.38;5053187;28;20078;-73
2022/01/08 00:46:28;;;;;;;54.28;38.40;;;;;;;-0.98;100.00;100898.56;5048822;28;20528;-74
2022/01/08 00:48:53;;;;;;;60.20;39.67;;;;;;;-0.97;100.00;100910.75;5052916;28;20399;-73
2022/01/08 00:51:18;;;;;;;56.10;39.72;;;;;;;-0.96;100.00;100920.28;5053279;28;20116;-73
2022/01/08 00:53:44;;;;;;;56.38;39.30;;;;;;;-1.01;100.00;100921.78;5052802;28;20085;-74
2022/01/08 00:56:09;;;;;;;54.80;38.35;;;;;;;-0.99;100.00;100923.66;5052985;28;20033;-74
2022/01/08 00:58:34;;;;;;;57.55;38.47;;;;;;;-1.04;100.00;100921.63;5052722;28;20040;-73
2022/01/08 01:01:00;;;;;;;53.45;37.17;;;;;;;-1.11;100.00;100923.00;5052546;28;20040;-73
2022/01/08 01:03:25;;;;;;;52.03;36.25;;;;;;;-1.17;100.00;100926.16;5052717;28;20103;-72
2022/01/08 01:05:51;;;;;;;52.15;35.92;;;;;;;-1.24;100.00;100926.63;5052582;28;20101;-74
2022/01/08 01:08:16;;;;;;;51.58;36.47;;;;;;;-1.28;100.00;100916.88;5052577;28;20020;-74
2022/01/08 01:10:42;;;;;;;52.88;36.47;;;;;;;-1.30;100.00;100911.63;5051470;28;20147;-74
2022/01/08 01:13:07;;;;;;;58.67;36.95;;;;;;;-1.28;100.00;100910.03;5052526;28;20029;-74
2022/01/08 01:15:33;;;;;;;56.58;38.05;;;;;;;-1.31;100.00;100911.53;5051500;28;20108;-74
2022/01/08 01:17:58;;;;;;;55.72;38.25;;;;;;;-1.34;100.00;100913.97;5051283;28;20041;-72
2022/01/08 01:20:23;;;;;;;55.13;37.97;;;;;;;-1.36;100.00;100910.44;5052241;28;20479;-74
2022/01/08 01:23:02;;;;;;;58.28;40.03;;;;;;;-1.37;100.00;100909.50;5052190;28;20037;-73
2022/01/08 01:25:34;;;;;;;60.08;39.72;;;;;;;-1.37;100.00;100903.44;5052267;28;20468;-73
2022/01/08 01:28:12;;;;;;;61.33;41.47;;;;;;;-1.39;100.00;100902.47;5048711;28;20054;-74
2022/01/08 01:49:13;;;;;;;71.75;47.50;;;;;;;-1.44;100.00;100936.84;5054610;28;20090;-73
2022/01/08 01:51:39;;;;;;;74.75;48.78;;;;;;;-1.45;100.00;100924.66;5056192;28;20384;-73
2022/01/08 01:54:04;;;;;;;70.95;48.85;;;;;;;-1.46;100.00;100925.47;5055997;28;20104;-74
2022/01/08 01:56:30;;;;;;;82.97;51.72;;;;;;;-1.48;100.00;100924.50;5056405;28;20025;-73
2022/01/08 01:58:55;;;;;;;81.15;50.33;;;;;;;-1.49;100.00;100916.66;5055969;28;20063;-73
2022/01/08 02:01:21;;;;;;;86.25;51.67;;;;;;;-1.48;100.00;100924.50;5056172;28;20029;-74
2022/01/08 02:03:46;;;;;;;83.07;52.22;;;;;;;-1.53;100.00;100917.28;5056359;28;20434;-74
2022/01/08 02:06:12;;;;;;;87.05;53.35;;;;;;;-1.50;100.00;100920.03;5055965;28;20416;-74
2022/01/08 02:08:38;;;;;;;87.20;53.65;;;;;;;-1.53;100.00;100920.78;5055017;28;20083;-74
2022/01/08 02:11:05;;;;;;;95.63;56.10;;;;;;;-1.53;100.00;100915.59;5055983;28;20031;-74
2022/01/08 02:13:32;;;;;;;95.55;56.88;;;;;;;-1.48;100.00;100918.44;5052053;28;20032;-74
2022/01/08 02:15:59;;;;;;;89.78;55.30;;;;;;;-1.51;100.00;100919.16;5056139;28;20021;-74
2022/01/08 02:18:25;;;;;;;88.63;55.95;;;;;;;-1.51;100.00;100919.16;5056106;28;20028;-74
2022/01/08 02:20:52;;;;;;;94.05;56.75;;;;;;;-1.51;100.00;100929.53;5055510;28;20033;-74
2022/01/08 02:23:17;;;;;;;95.38;57.40;;;;;;;-1.50;100.00;100928.72;5055597;28;20029;-74
2022/01/08 02:25:43;;;;;;;93.55;56.50;;;;;;;-1.55;100.00;100931.88;5055534;28;20052;-74
2022/01/08 02:28:08;;;;;;;90.57;56.67;;;;;;;-1.57;100.00;100926.63;5055572;28;20115;-74
2022/01/08 02:30:33;;;;;;;93.95;57.95;;;;;;;-1.60;100.00;100936.81;5055904;28;20028;-74
2022/01/08 02:32:59;;;;;;;95.60;59.28;;;;;;;-1.54;100.00;100933.66;5055732;28;20472;-74
2022/01/08 02:35:25;;;;;;;97.40;60.95;;;;;;;-1.49;100.00;100935.69;5055304;28;20040;-74
2022/01/08 02:37:53;;;;;;;105.22;61.95;;;;;;;-1.49;100.00;100938.28;5055462;28;20033;-74
2022/01/08 02:40:20;;;;;;;103.30;62.67;;;;;;;-1.49;100.00;100940.88;5055606;28;20095;-74
2022/01/08 02:42:52;;;;;;;98.13;60.70;;;;;;;-1.51;100.00;100944.22;5055171;28;20106;-74
2022/01/08 02:45:20;;;;;;;101.53;60.72;;;;;;;-1.55;100.00;100937.06;5054157;28;20086;-74
2022/01/08 02:47:47;;;;;;;104.20;60.33;;;;;;;-1.52;100.00;100940.72;5055365;28;20075;-74
2022/01/08 02:50:12;;;;;;;98.82;61.03;;;;;;;-1.51;100.00;100949.41;5055033;28;20498;-75
2022/01/08 02:52:45;;;;;;;97.07;59.53;;;;;;;-1.51;100.00;100934.72;5055334;28;20025;-75
2022/01/08 02:55:13;;;;;;;94.80;59.28;;;;;;;-1.53;100.00;100946.72;5055349;28;20029;-75
2022/01/08 02:57:39;;;;;;;97.13;56.75;;;;;;;-1.52;100.00;100942.41;5053685;28;20036;-75
2022/01/08 03:00:07;;;;;;;96.32;59.45;;;;;;;-1.55;100.00;100937.94;5054893;28;20029;-74
2022/01/08 03:02:32;;;;;;;99.20;58.00;;;;;;;-1.58;100.00;100945.56;5055353;28;20045;-74
2022/01/08 03:04:58;;;;;;;89.47;57.75;;;;;;;-1.52;100.00;100937.22;5055315;28;20117;-75
2022/01/08 03:07:23;;;;;;;90.50;58.63;;;;;;;-1.52;100.00;100939.81;5054647;28;20023;-74
2022/01/08 03:09:56;;;;;;;91.78;57.30;;;;;;;-1.50;100.00;100939.09;5054927;28;20365;-75
2022/01/08 03:12:24;;;;;;;94.35;58.35;;;;;;;-1.45;100.00;100945.41;5054542;28;20558;-75
2022/01/08 03:14:49;;;;;;;92.22;56.35;;;;;;;-1.45;100.00;100940.22;5054631;28;20064;-75
2022/01/08 03:17:15;;;;;;;99.40;59.45;;;;;;;-1.34;100.00;100947.69;5054782;28;20052;-75
2022/01/08 03:19:40;;;;;;;92.05;56.58;;;;;;;-1.33;100.00;100945.19;5053155;28;20148;-75
2022/01/08 03:22:06;;;;;;;93.00;54.58;;;;;;;-1.38;100.00;100935.38;5054497;28;20031;-75
2022/01/08 03:24:31;;;;;;;89.05;52.97;;;;;;;-1.36;100.00;100944.16;5054691;28;20029;-74
2022/01/08 03:26:57;;;;;;;90.70;54.30;;;;;;;-1.35;100.00;100940.75;5054151;28;20492;-75
2022/01/08 03:29:22;;;;;;;87.30;54.42;;;;;;;-1.35;100.00;100943.34;5054279;28;20028;-75
2022/01/08 03:31:48;;;;;;;85.03;53.95;;;;;;;-1.33;100.00;100949.50;5054530;28;20028;-75
2022/01/08 03:34:13;;;;;;;82.88;54.05;;;;;;;-1.40;100.00;100937.88;5054224;28;20495;-74
2022/01/08 03:36:39;;;;;;;88.45;55.45;;;;;;;-1.38;100.00;100940.56;5054152;28;20029;-75
2022/01/08 03:39:05;;;;;;;84.60;54.33;;;;;;;-1.37;100.00;100947.53;5036065;28;20040;-74
2022/01/08 03:41:30;;;;;;;85.50;53.83;;;;;;;-1.37;100.00;100952.72;5049943;28;20032;-74
2022/01/08 03:43:55;;;;;;;85.55;53.05;;;;;;;-1.39;100.00;100947.47;5054269;28;20468;-75
2022/01/08 03:46:22;;;;;;;85.70;53.50;;;;;;;-1.43;100.00;100946.41;5053993;28;20040;-75
2022/01/08 03:51:25;;;;;;;83.10;51.63;;;;;;;-1.49;100.00;100943.47;5053903;28;20120;-75
2022/01/08 03:53:51;;;;;;;85.03;54.78;;;;;;;-1.43;100.00;100937.72;5054309;28;20097;-74
2022/01/08 03:56:16;;;;;;;88.82;52.70;;;;;;;-1.47;100.00;100935.75;5053538;28;20104;-74
2022/01/08 03:58:41;;;;;;;80.97;51.78;;;;;;;-1.45;100.00;100947.13;5053690;28;20024;-74
2022/01/08 04:01:07;;;;;;;82.40;53.10;;;;;;;-1.51;100.00;100945.09;5054107;28;20437;-74
2022/01/08 04:03:32;;;;;;;78.63;53.33;;;;;;;-1.53;100.00;100954.50;5053770;28;20420;-74
2022/01/08 04:05:58;;;;;;;84.65;54.45;;;;;;;-1.55;100.00;100963.00;5053853;28;20051;-75
2022/01/08 04:08:23;;;;;;;83.07;55.08;;;;;;;-1.56;100.00;100971.56;5053545;28;20036;-74
2022/01/08 04:10:48;;;;;;;83.35;54.67;;;;;;;-1.60;100.00;100967.94;5053708;28;20025;-75
2022/01/08 04:13:22;;;;;;;82.78;55.35;;;;;;;-1.63;100.00;100962.56;5052693;28;20033;-74
2022/01/08 04:15:50;;;;;;;87.03;58.25;;;;;;;-1.53;100.00;100962.28;5049015;28;20395;-74
2022/01/08 04:18:16;;;;;;;89.13;59.10;;;;;;;-1.56;100.00;100956.91;5049790;28;20036;-73
2022/01/08 04:20:54;;;;;;;83.95;57.63;;;;;;;-1.51;100.00;100962.38;5053178;28;20467;-75
2022/01/08 04:23:21;;;;;;;88.22;59.72;;;;;;;-1.50;100.00;100964.13;5050550;28;20125;-73
2022/01/08 04:25:50;;;;;;;88.88;60.72;;;;;;;-1.46;100.00;100969.56;5053224;28;20037;-76
2022/01/08 04:28:16;;;;;;;94.43;61.45;;;;;;;-1.46;100.00;100968.69;5053256;28;20032;-75
2022/01/08 04:30:42;;;;;;;89.95;60.03;;;;;;;-1.47;100.00;100972.97;5049404;28;20025;-75
2022/01/08 04:33:07;;;;;;;90.32;63.80;;;;;;;-1.45;100.00;100976.53;5053198;28;20478;-75
2022/01/08 04:35:33;;;;;;;93.22;62.05;;;;;;;-1.45;100.00;100991.22;5052980;28;20131;-75
2022/01/08 04:37:58;;;;;;;92.38;62.97;;;;;;;-1.51;100.00;100991.78;5053259;28;20060;-75
2022/01/08 04:40:24;;;;;;;94.97;63.90;;;;;;;-1.46;100.00;100992.91;5051672;28;20056;-76
2022/01/08 04:42:50;;;;;;;92.07;65.60;;;;;;;-1.43;100.00;100987.00;5052988;28;20410;-75
2022/01/08 04:45:15;;;;;;;88.75;62.55;;;;;;;-1.38;100.00;100982.06;5053217;28;20025;-75
2022/01/08 04:47:41;;;;;;;91.72;62.97;;;;;;;-1.35;100.00;100977.06;5052838;28;20066;-75
2022/01/08 04:50:07;;;;;;;93.47;64.03;;;;;;;-1.33;100.00;100978.03;5052840;28;20040;-75
2022/01/08 04:52:33;;;;;;;91.45;63.50;;;;;;;-1.30;100.00;100988.56;5052883;28;20028;-75
2022/01/08 04:54:58;;;;;;;101.10;69.60;;;;;;;-1.33;100.00;100991.88;5052763;28;20029;-74
2022/01/08 04:57:24;;;;;;;90.90;65.55;;;;;;;-1.37;100.00;100991.63;5052714;28;20036;-75
2022/01/08 04:59:49;;;;;;;94.82;63.95;;;;;;;-1.41;100.00;101001.84;5052917;28;20021;-76
2022/01/08 05:02:14;;;;;;;92.28;62.00;;;;;;;-1.45;100.00;100999.88;5052644;28;20360;-75
2022/01/08 05:04:40;;;;;;;94.60;65.00;;;;;;;-1.40;100.00;101000.13;5052673;28;20115;-75
2022/01/08 05:07:05;;;;;;;89.45;62.08;;;;;;;-1.43;100.00;100998.28;5052489;28;20167;-75
2022/01/08 05:09:31;;;;;;;94.25;65.07;;;;;;;-1.45;100.00;100994.69;5052652;28;20033;-75
2022/01/08 05:11:56;;;;;;;89.50;65.03;;;;;;;-1.45;100.00;101004.19;5052737;28;20456;-74
2022/01/08 05:14:23;;;;;;;91.70;66.28;;;;;;;-1.46;100.00;101008.47;5051950;28;20029;-75
2022/01/08 05:16:55;;;;;;;86.35;63.45;;;;;;;-1.43;100.00;101011.25;5048942;28;20032;-72
2022/01/08 05:19:25;;;;;;;;;;;;;;;-1.44;100.00;101014.66;5052861;28;20021;-73
2022/01/08 05:21:57;;;;;;;92.68;63.33;;;;;;;-1.43;100.00;101010.34;5052445;28;19923;-73
2022/01/08 05:24:22;;;;;;;93.50;64.82;;;;;;;-1.41;100.00;101008.75;5052266;28;20104;-72
2022/01/08 05:26:47;;;;;;;92.13;63.60;;;;;;;-1.32;100.00;101008.34;5052354;28;20079;-73
2022/01/08 05:29:13;;;;;;;93.25;63.13;;;;;;;-1.27;100.00;101001.69;5052515;28;20056;-73
2022/01/08 05:31:38;;;;;;;90.15;60.58;;;;;;;-1.26;100.00;101004.38;5052400;28;20025;-73
2022/01/08 05:34:03;;;;;;;91.70;62.95;;;;;;;-1.20;100.00;101002.94;5052279;28;20021;-73
2022/01/08 05:36:28;;;;;;;81.68;59.10;;;;;;;-1.17;100.00;101003.97;5052349;28;20021;-73
2022/01/08 05:38:54;;;;;;;84.72;57.72;;;;;;;-1.17;100.00;101003.97;5052563;28;20044;-73
2022/01/08 05:41:19;;;;;;;79.70;56.40;;;;;;;-1.19;100.00;100996.91;5052169;28;20553;-74
2022/01/08 05:43:44;;;;;;;80.55;54.50;;;;;;;-1.20;100.00;100993.44;5052348;28;20033;-73
2022/01/08 05:46:10;;;;;;;77.75;52.65;;;;;;;-1.26;100.00;100994.00;5052284;28;20108;-73
2022/01/08 05:48:37;;;;;;;79.53;50.85;;;;;;;-1.29;100.00;100995.56;5052393;28;20096;-73
2022/01/08 05:51:02;;;;;;;78.35;51.78;;;;;;;-1.30;100.00;101011.91;5045196;28;20100;-73
2022/01/08 05:53:28;;;;;;;74.30;49.35;;;;;;;-1.30;100.00;101014.50;5050826;28;20635;-73
2022/01/08 05:55:53;;;;;;;71.65;48.10;;;;;;;-1.38;100.00;101028.75;5052495;28;20484;-73
2022/01/08 05:58:18;;;;;;;73.95;48.42;;;;;;;-1.39;100.00;101011.41;5052088;28;20059;-73
2022/01/08 06:00:44;;;;;;;73.20;48.97;;;;;;;-1.43;100.00;101021.63;5052055;28;20468;-72
2022/01/08 06:03:09;;;;;;;77.20;50.05;;;;;;;-1.46;100.00;101023.13;5052310;28;20052;-73
2022/01/08 06:05:35;;;;;;;79.13;50.50;;;;;;;-1.48;100.00;101036.03;5052147;28;20029;-73
2022/01/08 06:08:00;;;;;;;73.43;49.92;;;;;;;-1.49;100.00;101031.63;5051906;28;20028;-73
2022/01/08 06:10:25;;;;;;;78.15;51.95;;;;;;;-1.44;100.00;101038.00;5052455;28;20044;-75
2022/01/08 06:12:53;;;;;;;80.15;50.92;;;;;;;-1.34;100.00;101030.72;5052050;28;20021;-74
2022/01/08 06:15:19;;;;;;;73.88;50.97;;;;;;;-1.35;100.00;101034.13;5052153;28;20028;-76
2022/01/08 06:17:44;;;;;;;79.03;50.65;;;;;;;-1.37;100.00;101044.38;5044952;28;20088;-75
2022/01/08 06:20:10;;;;;;;76.32;50.47;;;;;;;-1.35;100.00;101040.19;5053124;28;20506;-75
2022/01/08 06:22:35;;;;;;;77.93;50.67;;;;;;;-1.33;100.00;101035.09;5055541;28;20025;-76
2022/01/08 06:25:01;;;;;;;71.97;50.42;;;;;;;-1.28;100.00;101038.81;5055553;28;20076;-76
2022/01/08 06:27:26;;;;;;;76.40;51.70;;;;;;;-1.26;100.00;101042.41;5054331;28;20396;-76
2022/01/08 06:29:51;;;;;;;73.78;51.97;;;;;;;-1.28;100.00;101036.22;5055708;28;20021;-75
2022/01/08 06:32:17;;;;;;;76.88;52.17;;;;;;;-1.28;100.00;101038.81;5055741;28;20387;-75
2022/01/08 06:34:43;;;;;;;78.05;51.13;;;;;;;-1.28;100.00;101041.41;5051365;28;20025;-75
2022/01/08 06:37:08;;;;;;;75.18;50.05;;;;;;;-1.30;100.00;101037.84;5055557;28;20371;-75
2022/01/08 06:39:33;;;;;;;78.63;51.28;;;;;;;-1.29;100.00;101030.16;5055162;28;20017;-75
2022/01/08 06:41:59;;;;;;;75.97;51.10;;;;;;;-1.31;100.00;101026.59;5055238;28;20029;-76
2022/01/08 06:44:24;;;;;;;80.88;50.67;;;;;;;-1.36;100.00;101021.97;5055423;28;20471;-74
2022/01/08 06:46:49;;;;;;;75.82;48.97;;;;;;;-1.37;100.00;101017.56;5055260;28;20041;-75
2022/01/08 06:49:15;;;;;;;77.93;49.15;;;;;;;-1.38;100.00;101010.59;5055474;28;20380;-76
2022/01/08 06:51:40;;;;;;;81.93;50.70;;;;;;;-1.37;100.00;101012.38;5055272;28;20021;-75
2022/01/08 06:54:05;;;;;;;77.22;48.88;;;;;;;-1.35;100.00;101009.06;5055454;28;20021;-74
2022/01/08 06:56:31;;;;;;;76.35;49.50;;;;;;;-1.38;100.00;101010.59;5055202;28;20467;-76
2022/01/08 06:58:56;;;;;;;83.07;50.75;;;;;;;-1.34;100.00;101008.28;5055304;28;20025;-75
2022/01/08 07:01:22;;;;;;;79.43;50.15;;;;;;;-1.39;100.00;101006.22;5054860;28;20036;-76
2022/01/08 07:03:47;;;;;;;75.45;49.60;;;;;;;-1.39;100.00;101020.06;5055126;28;20057;-76
2022/01/08 07:06:13;;;;;;;81.38;49.92;;;;;;;-1.40;100.00;101020.88;5055094;28;20048;-75
2022/01/08 07:08:38;;;;;;;80.55;50.17;;;;;;;-1.42;100.00;101018.19;5054793;28;20531;-75
2022/01/08 07:11:03;;;;;;;77.47;51.83;;;;;;;-1.41;100.00;101014.81;5055038;28;20025;-76
2022/01/08 07:13:29;;;;;;;79.10;49.50;;;;;;;-1.33;100.00;101009.16;5054923;28;20064;-75
2022/01/08 07:15:54;;;;;;;83.45;51.33;;;;;;;-1.34;100.00;101021.25;5054535;28;20388;-76
2022/01/08 07:18:19;;;;;;;80.57;49.75;;;;;;;-1.38;100.00;101008.91;5054703;28;20040;-76
2022/01/08 07:20:45;;;;;;;79.10;48.38;;;;;;;-1.37;100.00;101010.66;5054760;28;20021;-76
2022/01/08 07:23:10;;;;;;;81.03;49.58;;;;;;;-1.41;100.00;101006.16;5054425;28;20450;-75
2022/01/08 07:25:35;;;;;;;81.75;49.75;;;;;;;-1.42;100.00;101014.72;5054300;28;20037;-75
2022/01/08 07:28:01;;;;;;;81.35;49.40;;;;;;;-1.45;100.00;101018.03;5054440;28;20029;-76
2022/01/08 07:30:26;;;;;;;80.05;49.58;;;;;;;-1.39;100.00;101016.59;5052062;28;20029;-76
2022/01/08 07:32:52;;;;;;;77.55;49.15;;;;;;;-1.39;100.00;101014.00;5054544;28;20086;-76
2022/01/08 07:35:21;;;;;;;82.00;49.83;;;;;;;-1.36;100.00;101017.66;5054291;28;20045;-76
2022/01/08 07:37:48;;;;;;;81.55;49.42;;;;;;;-1.27;100.00;101001.69;5054194;28;20491;-75
2022/01/08 07:40:14;;;;;;;81.63;48.65;;;;;;;-1.20;100.00;101008.13;5050325;28;20017;-76
2022/01/08 07:42:40;;;;;;;83.07;47.95;;;;;;;-1.19;100.00;101016.00;5054229;28;20029;-76
2022/01/08 07:45:07;;;;;;;81.93;48.53;;;;;;;-1.21;100.00;101015.00;5054272;28;20390;-76
2022/01/08 07:47:32;;;;;;;79.80;47.65;;;;;;;-1.17;100.00;101014.38;5054073;28;20103;-76
2022/01/08 07:49:58;;;;;;;82.80;47.40;;;;;;;-1.18;100.00;101007.41;5054100;28;20071;-75
2022/01/08 07:52:23;;;;;;;80.25;46.22;;;;;;;-1.10;100.00;101000.03;5053846;28;20103;-75
2022/01/08 07:54:49;;;;;;;81.95;46.65;;;;;;;-1.12;100.00;101007.72;5054134;28;20029;-74
2022/01/08 07:57:14;;;;;;;72.60;44.80;;;;;;;-1.10;100.00;101005.22;5053985;28;20025;-75
2022/01/08 07:59:42;;;;;;;77.75;44.65;;;;;;;-1.03;100.00;100996.03;5053944;28;20514;-77
2022/01/08 08:02:07;;;;;;;71.50;42.45;;;;;;;-1.00;100.00;100998.84;5053842;28;20112;-76
2022/01/08 08:04:33;;;;;;;70.60;41.45;;;;;;;-0.96;100.00;100982.59;5053541;28;20096;-76
2022/01/08 08:06:58;;;;;;;69.82;41.15;;;;;;;-0.90;100.00;100981.22;5053794;28;20083;-72
2022/01/08 08:09:23;;;;;;;65.55;38.58;;;;;;;-0.82;100.00;100989.41;5053556;28;20021;-74
2022/01/08 08:11:49;;;;;;;69.18;39.40;;;;;;;-0.79;100.00;100992.16;5053382;28;20025;-74
2022/01/08 08:14:14;;;;;;;68.93;38.97;;;;;;;-0.80;100.00;100987.78;5053752;28;20024;-73
2022/01/08 08:16:40;;;;;;;71.15;39.40;;;;;;;-0.76;100.00;100986.25;5053345;28;20036;-74
2022/01/08 08:19:06;;;;;;;65.90;37.30;;;;;;;-0.73;100.00;100992.50;5053372;28;20028;-74
2022/01/08 08:21:31;;;;;;;61.95;36.47;;;;;;;-0.66;100.00;100985.03;5053457;28;20450;-74
2022/01/08 08:23:57;;;;;;;59.95;36.25;;;;;;;-0.65;100.00;100973.84;5053243;28;20467;-73
2022/01/08 08:26:22;;;;;;;60.78;36.92;;;;;;;-0.64;100.00;100975.59;5053054;28;20124;-74
2022/01/08 08:28:48;;;;;;;66.00;36.80;;;;;;;-0.62;100.00;100981.78;5046200;28;20033;-74
2022/01/08 08:31:13;;;;;;;62.67;36.00;;;;;;;-0.55;100.00;100976.97;5052588;28;20387;-74
2022/01/08 08:33:39;;;;;;;63.58;37.42;;;;;;;-0.51;100.00;100975.44;5053372;28;20021;-74
2022/01/08 08:36:05;;;;;;;63.40;38.03;;;;;;;-0.48;100.00;100973.00;5053231;28;20096;-72
2022/01/08 08:38:30;;;;;;;66.63;40.03;;;;;;;-0.45;100.00;100967.94;5053230;28;20039;-74
2022/01/08 08:40:56;;;;;;;67.95;39.60;;;;;;;-0.47;100.00;100977.34;5053145;28;20033;-74
2022/01/08 08:43:21;;;;;;;67.35;39.25;;;;;;;-0.39;100.00;100968.25;5052216;28;20032;-74
2022/01/08 08:45:47;;;;;;;66.60;38.80;;;;;;;-0.38;100.00;100961.34;5053405;28;20043;-74
2022/01/08 08:48:13;;;;;;;65.65;37.53;;;;;;;-0.36;100.00;100963.22;5052927;28;20498;-74
2022/01/08 08:50:39;;;;;;;67.22;39.90;;;;;;;-0.27;100.00;100967.09;5052860;28;20032;-74
2022/01/08 08:53:04;;;;;;;64.72;37.40;;;;;;;-0.23;100.00;100969.91;5052804;28;20460;-72
2022/01/08 08:55:29;;;;;;;68.93;38.75;;;;;;;-0.18;100.00;100958.03;5053245;28;20029;-73
2022/01/08 08:57:55;;;;;;;67.70;39.85;;;;;;;-0.16;100.00;100965.03;5052753;28;20383;-73
2022/01/08 09:00:20;;;;;;;72.65;40.40;;;;;;;-0.14;100.00;100959.09;5052518;28;20055;-74
2022/01/08 09:02:46;;;;;;;67.53;37.15;;;;;;;-0.07;100.00;100963.78;5053119;28;20024;-73
2022/01/08 09:05:11;;;;;;;65.00;38.13;;;;;;;-0.07;100.00;100961.19;5052694;28;20467;-73
2022/01/08 09:07:37;;;;;;;67.43;39.13;;;;;;;-0.05;100.00;100963.84;5052624;28;20116;-73
2022/01/08 09:10:07;;;;;;;68.13;38.33;;;;;;;0.03;100.00;100969.41;5052778;28;20029;-73
2022/01/08 09:12:32;;;;;;;65.10;37.85;;;;;;;0.09;100.00;100972.34;5052513;28;20074;-72
2022/01/08 09:14:58;;;;;;;62.70;37.10;;;;;;;0.06;100.00;100967.88;5052650;28;20488;-70
2022/01/08 09:17:25;;;;;;;62.33;36.15;;;;;;;0.10;100.00;100968.91;5052975;28;20021;-74
2022/01/08 09:19:51;;;;;;;64.18;35.83;;;;;;;0.16;100.00;100962.31;5052620;28;20156;-73
2022/01/08 09:22:16;;;;;;;57.13;34.80;;;;;;;0.19;100.00;100958.06;5052293;28;20028;-72
2022/01/08 09:24:43;;;;;;;59.45;35.20;;;;;;;0.23;100.00;100955.66;5052425;28;20033;-72
2022/01/08 09:27:09;;;;;;;63.75;35.65;;;;;;;0.19;100.00;100948.56;5052594;28;20083;-73
2022/01/08 09:29:34;;;;;;;56.83;32.78;;;;;;;0.23;100.00;100939.19;5052541;28;20025;-72
2022/01/08 09:32:00;;;;;;;57.45;35.25;;;;;;;0.25;100.00;100932.34;5052822;28;20021;-72
2022/01/08 09:34:25;;;;;;;56.55;33.90;;;;;;;0.35;100.00;100926.78;5052619;28;20029;-70
2022/01/08 09:36:51;;;;;;;60.40;33.88;;;;;;;0.32;100.00;100930.13;5052471;28;20025;-72
2022/01/08 09:39:17;;;;;;;55.67;32.35;;;;;;;0.37;100.00;100919.94;5052291;28;20021;-72
2022/01/08 09:41:42;;;;;;;57.03;33.95;;;;;;;0.41;100.00;100918.34;5052234;28;20025;-69
2022/01/08 09:44:08;;;;;;;57.58;32.80;;;;;;;0.46;100.00;100912.53;5052422;28;20025;-71
2022/01/08 09:46:33;;;;;;;55.35;30.65;;;;;;;0.47;100.00;100903.94;5052048;28;20021;-72
2022/01/08 09:48:59;;;;;;;54.65;31.85;;;;;;;0.60;100.00;100917.50;5052441;28;20035;-71
2022/01/08 09:51:26;;;;;;;51.88;30.90;;;;;;;0.63;100.00;100910.72;5052411;28;20430;-71
2022/01/08 09:53:52;;;;;;;54.30;31.17;;;;;;;0.69;100.00;100897.09;5053433;28;20020;-71
2022/01/08 09:56:18;;;;;;;55.90;31.92;;;;;;;0.74;100.00;100897.31;5056211;28;20028;-72
2022/01/08 09:58:43;;;;;;;55.33;32.53;;;;;;;0.76;100.00;100887.84;5056108;28;20017;-71
2022/01/08 10:01:24;;;;;;;53.92;30.98;;;;;;;0.82;100.00;100882.94;5055836;28;20025;-71
2022/01/08 10:03:50;;;;;;;56.10;31.70;;;;;;;0.77;100.00;100881.81;5056164;28;20029;-71
2022/01/08 10:06:21;;;;;;;52.08;31.27;;;;;;;0.81;100.00;100871.63;5056059;28;20116;-69
2022/01/08 10:08:48;;;;;;;50.53;29.95;;;;;;;0.80;100.00;100861.13;5056069;28;20021;-72
2022/01/08 10:11:13;;;;;;;52.67;30.90;;;;;;;0.85;100.00;100862.25;5055851;28;20025;-69
2022/01/08 10:13:41;;;;;;;50.08;31.20;;;;;;;0.85;100.00;100846.63;5055758;28;20517;-75
2022/01/08 10:18:56;;;;;;;54.95;30.27;;;;;;;0.94;100.00;100831.41;5052286;28;20405;-68
2022/01/08 10:21:29;;;;;;;47.67;28.15;;;;;;;1.00;100.00;100823.84;5055497;28;20029;-68
2022/01/08 10:23:57;;;;;;;52.15;29.90;;;;;;;1.04;100.00;100802.31;5055641;28;20079;-71
2022/01/08 10:26:30;;;;;;;48.38;28.42;;;;;;;1.08;100.00;100799.84;5055465;28;20045;-70
2022/01/08 10:28:58;;;;;;;51.03;29.88;;;;;;;1.11;100.00;100795.66;5052095;28;20108;-70
2022/01/08 10:31:28;;;;;;;54.85;29.23;;;;;;;1.15;100.00;100801.88;5055378;28;20045;-69
2022/01/08 10:34:04;;;;;;;50.33;28.15;;;;;;;1.21;100.00;100791.75;5055355;28;20490;-71
2022/01/08 10:36:31;;;;;;;46.58;25.63;;;;;;;1.29;100.00;100790.31;5052235;28;20013;-70
2022/01/08 10:38:59;;;;;;;45.17;23.98;;;;;;;1.29;100.00;100805.94;5051534;28;20430;-68
2022/01/08 10:41:26;;;;;;;44.70;26.75;;;;;;;1.32;100.00;100772.22;5055193;28;20040;-71
2022/01/08 10:44:05;;;;;;;44.33;25.85;;;;;;;1.37;100.00;100765.50;5055243;28;20017;-72
2022/01/08 10:46:30;;;;;;;45.60;26.15;;;;;;;1.39;100.00;100763.81;5051877;28;20040;-71
2022/01/08 10:48:56;;;;;;;43.75;23.77;;;;;;;1.48;100.00;100757.22;5055165;28;20032;-71
2022/01/08 10:51:24;;;;;;;40.72;21.45;;;;;;;1.50;100.00;100750.31;5055065;28;20024;-71
2022/01/08 10:54:16;;;;;;;41.00;23.27;;;;;;;1.58;100.00;100733.28;5055041;28;20031;-71
2022/01/08 10:56:44;;;;;;;39.08;22.27;;;;;;;1.51;100.00;100732.16;4993507;28;20518;-72
2022/01/08 10:59:12;;;;;;;42.90;23.42;;;;;;;1.54;100.00;100734.91;4993672;28;20436;-72
2022/01/08 11:01:43;;;;;;;40.85;23.25;;;;;;;1.56;100.00;100727.16;4993298;28;20390;-72
2022/01/08 11:04:11;;;;;;;37.92;21.50;;;;;;;1.59;100.00;100716.84;4993446;28;20478;-70
2022/01/08 11:06:51;;;;;;;39.00;22.20;;;;;;;1.62;100.00;100711.75;4992677;28;20026;-71
2022/01/08 11:09:16;;;;;;;38.75;20.70;;;;;;;1.69;100.00;100705.94;4993448;28;20031;-71
2022/01/08 11:11:43;;;;;;;38.08;21.27;;;;;;;1.72;100.00;100708.66;4993297;28;20393;-71
2022/01/08 11:14:22;;;;;;;36.35;21.17;;;;;;;1.84;100.00;100702.13;4993172;28;20050;-71
2022/01/08 11:16:51;;;;;;;35.58;19.70;;;;;;;1.88;100.00;100689.25;4993368;28;20030;-71
2022/01/08 11:19:18;;;;;;;37.65;18.85;;;;;;;1.89;100.00;100675.41;4993443;28;20616;-69
2022/01/08 11:21:48;;;;;;;34.58;17.92;;;;;;;1.94;100.00;100675.56;4992787;28;20066;-73
2022/01/08 11:24:17;;;;;;;36.28;19.23;;;;;;;1.92;100.00;100665.09;4992775;28;20481;-74